sensor_id;sensor_type;location;lat;lon;timestamp;temperature;humidity
3996;DHT22;2012;49.794;9.722;2023-07-31T00:01:44;18.40;99.90
3996;DHT22;2012;49.794;9.722;2023-07-31T00:04:11;18.30;99.90
3996;DHT22;2012;49.794;9.722;2023-07-31T00:06:38;18.30;99.90
3996;DHT22;2012;49.794;9.722;2023-07-31T00:09:05;18.30;99.90
3996;DHT22;2012;49.794;9.722;2023-07-31T00:11:32;18.30;99.90
3996;DHT22;2012;49.794;9.722;2023-07-31T00:13:59;18.30;99.90
3996;DHT22;2012;49.794;9.722;2023-07-31T00:16:26;18.50;99.90
3996;DHT22;2012;49.794;9.722;2023-07-31T00:18:53;18.40;99.90
3996;DHT22;2012;49.794;9.722;2023-07-31T00:21:20;18.40;99.90
3996;DHT22;2012;49.794;9.722;2023-07-31T00:23:46;18.50;99.90
3996;DHT22;2012;49.794;9.722;2023-07-31T00:26:13;18.40;99.90
3996;DHT22;2012;49.794;9.722;2023-07-31T00:28:40;18.40;99.90
3996;DHT22;2012;49.794;9.722;2023-07-31T00:31:07;18.40;99.90
3996;DHT22;2012;49.794;9.722;2023-07-31T00:33:34;18.30;99.90
3996;DHT22;2012;49.794;9.722;2023-07-31T00:36:02;18.40;99.90
3996;DHT22;2012;49.794;9.722;2023-07-31T00:38:29;18.30;99.90
3996;DHT22;2012;49.794;9.722;2023-07-31T00:40:56;18.30;99.90
3996;DHT22;2012;49.794;9.722;2023-07-31T00:43:24;18.30;99.90
3996;DHT22;2012;49.794;9.722;2023-07-31T00:45:51;18.30;99.90
3996;DHT22;2012;49.794;9.722;2023-07-31T00:48:18;18.20;99.90
3996;DHT22;2012;49.794;9.722;2023-07-31T00:50:45;18.20;99.90
3996;DHT22;2012;49.794;9.722;2023-07-31T00:53:14;18.20;99.90
3996;DHT22;2012;49.794;9.722;2023-07-31T00:55:42;18.20;99.90
3996;DHT22;2012;49.794;9.722;2023-07-31T00:58:09;18.10;99.90
3996;DHT22;2012;49.794;9.722;2023-07-31T01:00:38;18.00;99.90
3996;DHT22;2012;49.794;9.722;2023-07-31T01:03:05;18.10;99.90
3996;DHT22;2012;49.794;9.722;2023-07-31T01:05:49;18.10;99.90
3996;DHT22;2012;49.794;9.722;2023-07-31T01:08:25;18.20;99.90
3996;DHT22;2012;49.794;9.722;2023-07-31T01:11:02;18.30;99.90
3996;DHT22;2012;49.794;9.722;2023-07-31T01:13:31;18.30;99.90
3996;DHT22;2012;49.794;9.722;2023-07-31T01:15:57;18.20;99.90
3996;DHT22;2012;49.794;9.722;2023-07-31T01:18:24;18.20;99.90
3996;DHT22;2012;49.794;9.722;2023-07-31T01:21:02;18.10;99.90
3996;DHT22;2012;49.794;9.722;2023-07-31T01:26:28;18.10;99.90
3996;DHT22;2012;49.794;9.722;2023-07-31T01:31:44;18.10;99.90
3996;DHT22;2012;49.794;9.722;2023-07-31T01:34:16;18.10;99.90
3996;DHT22;2012;49.794;9.722;2023-07-31T01:36:43;18.10;99.90
3996;DHT22;2012;49.794;9.722;2023-07-31T01:39:10;18.10;99.90
3996;DHT22;2012;49.794;9.722;2023-07-31T01:41:37;18.00;99.90
3996;DHT22;2012;49.794;9.722;2023-07-31T01:44:04;18.00;99.90
3996;DHT22;2012;49.794;9.722;2023-07-31T01:46:31;18.00;99.90
3996;DHT22;2012;49.794;9.722;2023-07-31T01:48:58;17.90;99.90
3996;DHT22;2012;49.794;9.722;2023-07-31T01:51:25;18.00;99.90
3996;DHT22;2012;49.794;9.722;2023-07-31T01:53:52;18.10;99.90
3996;DHT22;2012;49.794;9.722;2023-07-31T01:56:19;17.90;99.90
3996;DHT22;2012;49.794;9.722;2023-07-31T01:58:46;17.80;99.90
3996;DHT22;2012;49.794;9.722;2023-07-31T02:01:13;17.90;99.90
3996;DHT22;2012;49.794;9.722;2023-07-31T02:03:39;17.70;99.90
3996;DHT22;2012;49.794;9.722;2023-07-31T02:06:06;17.60;99.90
3996;DHT22;2012;49.794;9.722;2023-07-31T02:08:33;17.60;99.90
3996;DHT22;2012;49.794;9.722;2023-07-31T02:11:00;17.60;99.90
3996;DHT22;2012;49.794;9.722;2023-07-31T02:13:27;17.70;99.90
3996;DHT22;2012;49.794;9.722;2023-07-31T02:15:54;17.70;99.90
3996;DHT22;2012;49.794;9.722;2023-07-31T02:18:21;17.70;99.90
3996;DHT22;2012;49.794;9.722;2023-07-31T02:20:52;17.80;99.90
3996;DHT22;2012;49.794;9.722;2023-07-31T02:23:19;17.70;99.90
3996;DHT22;2012;49.794;9.722;2023-07-31T02:25:46;17.70;99.90
3996;DHT22;2012;49.794;9.722;2023-07-31T02:28:14;17.70;99.90
3996;DHT22;2012;49.794;9.722;2023-07-31T02:30:44;17.60;99.90
3996;DHT22;2012;49.794;9.722;2023-07-31T02:33:13;17.60;99.90
3996;DHT22;2012;49.794;9.722;2023-07-31T02:35:40;17.70;99.90
3996;DHT22;2012;49.794;9.722;2023-07-31T02:38:07;17.70;99.90
3996;DHT22;2012;49.794;9.722;2023-07-31T02:40:33;17.70;99.90
3996;DHT22;2012;49.794;9.722;2023-07-31T02:43:00;17.70;99.90
3996;DHT22;2012;49.794;9.722;2023-07-31T02:45:27;17.70;99.90
3996;DHT22;2012;49.794;9.722;2023-07-31T02:47:54;17.70;99.90
3996;DHT22;2012;49.794;9.722;2023-07-31T02:50:21;17.80;99.90
3996;DHT22;2012;49.794;9.722;2023-07-31T02:52:47;17.80;99.90
3996;DHT22;2012;49.794;9.722;2023-07-31T02:55:14;17.80;99.90
3996;DHT22;2012;49.794;9.722;2023-07-31T02:57:41;17.80;99.90
3996;DHT22;2012;49.794;9.722;2023-07-31T03:00:08;17.70;99.90
3996;DHT22;2012;49.794;9.722;2023-07-31T03:02:36;17.70;99.90
3996;DHT22;2012;49.794;9.722;2023-07-31T03:05:03;17.60;99.90
3996;DHT22;2012;49.794;9.722;2023-07-31T03:07:30;17.70;99.90
3996;DHT22;2012;49.794;9.722;2023-07-31T03:09:57;17.90;99.90
3996;DHT22;2012;49.794;9.722;2023-07-31T03:12:24;17.70;99.90
3996;DHT22;2012;49.794;9.722;2023-07-31T03:14:51;17.70;99.90
3996;DHT22;2012;49.794;9.722;2023-07-31T03:17:17;17.70;99.90
3996;DHT22;2012;49.794;9.722;2023-07-31T03:19:44;17.90;99.90
3996;DHT22;2012;49.794;9.722;2023-07-31T03:22:11;17.90;99.90
3996;DHT22;2012;49.794;9.722;2023-07-31T03:24:38;17.90;99.90
3996;DHT22;2012;49.794;9.722;2023-07-31T03:27:05;17.90;99.90
3996;DHT22;2012;49.794;9.722;2023-07-31T03:29:32;17.80;99.90
3996;DHT22;2012;49.794;9.722;2023-07-31T03:31:59;17.90;99.90
3996;DHT22;2012;49.794;9.722;2023-07-31T03:34:27;17.80;99.90
3996;DHT22;2012;49.794;9.722;2023-07-31T03:36:53;17.90;99.90
3996;DHT22;2012;49.794;9.722;2023-07-31T03:39:20;18.00;99.90
3996;DHT22;2012;49.794;9.722;2023-07-31T03:41:49;18.00;99.90
3996;DHT22;2012;49.794;9.722;2023-07-31T03:44:17;17.90;99.90
3996;DHT22;2012;49.794;9.722;2023-07-31T03:46:43;18.00;99.90
3996;DHT22;2012;49.794;9.722;2023-07-31T03:49:10;18.00;99.90
3996;DHT22;2012;49.794;9.722;2023-07-31T03:51:37;17.90;99.90
3996;DHT22;2012;49.794;9.722;2023-07-31T03:54:04;17.90;99.90
3996;DHT22;2012;49.794;9.722;2023-07-31T03:56:31;17.90;99.90
3996;DHT22;2012;49.794;9.722;2023-07-31T03:59:01;17.90;99.90
3996;DHT22;2012;49.794;9.722;2023-07-31T04:01:28;17.70;99.90
3996;DHT22;2012;49.794;9.722;2023-07-31T04:03:55;17.80;99.90
3996;DHT22;2012;49.794;9.722;2023-07-31T04:06:22;17.80;99.90
3996;DHT22;2012;49.794;9.722;2023-07-31T04:08:49;17.80;99.90
3996;DHT22;2012;49.794;9.722;2023-07-31T04:11:16;17.70;99.90
3996;DHT22;2012;49.794;9.722;2023-07-31T04:13:43;17.70;99.90
3996;DHT22;2012;49.794;9.722;2023-07-31T04:16:10;17.80;99.90
3996;DHT22;2012;49.794;9.722;2023-07-31T04:18:37;17.80;99.90
3996;DHT22;2012;49.794;9.722;2023-07-31T04:21:04;17.80;99.90
3996;DHT22;2012;49.794;9.722;2023-07-31T04:23:31;17.70;99.90
3996;DHT22;2012;49.794;9.722;2023-07-31T04:25:58;17.50;99.90
3996;DHT22;2012;49.794;9.722;2023-07-31T04:28:25;17.50;99.90
3996;DHT22;2012;49.794;9.722;2023-07-31T04:30:52;17.70;99.90
3996;DHT22;2012;49.794;9.722;2023-07-31T04:33:20;17.50;99.90
3996;DHT22;2012;49.794;9.722;2023-07-31T04:35:51;17.60;99.90
3996;DHT22;2012;49.794;9.722;2023-07-31T04:38:22;17.50;99.90
3996;DHT22;2012;49.794;9.722;2023-07-31T04:40:49;17.70;99.90
3996;DHT22;2012;49.794;9.722;2023-07-31T04:43:16;17.80;99.90
3996;DHT22;2012;49.794;9.722;2023-07-31T04:45:45;17.70;99.90
3996;DHT22;2012;49.794;9.722;2023-07-31T04:48:14;17.70;99.90
3996;DHT22;2012;49.794;9.722;2023-07-31T04:50:41;17.60;99.90
3996;DHT22;2012;49.794;9.722;2023-07-31T04:53:08;17.70;99.90
3996;DHT22;2012;49.794;9.722;2023-07-31T04:55:35;17.70;99.90
3996;DHT22;2012;49.794;9.722;2023-07-31T04:58:01;17.80;99.90
3996;DHT22;2012;49.794;9.722;2023-07-31T05:00:28;17.80;99.90
3996;DHT22;2012;49.794;9.722;2023-07-31T05:02:55;17.60;99.90
3996;DHT22;2012;49.794;9.722;2023-07-31T05:05:22;17.60;99.90
3996;DHT22;2012;49.794;9.722;2023-07-31T05:07:49;17.60;99.90
3996;DHT22;2012;49.794;9.722;2023-07-31T05:10:16;17.70;99.90
3996;DHT22;2012;49.794;9.722;2023-07-31T05:12:43;17.70;99.90
3996;DHT22;2012;49.794;9.722;2023-07-31T05:15:10;17.80;99.90
3996;DHT22;2012;49.794;9.722;2023-07-31T05:17:36;17.70;99.90
3996;DHT22;2012;49.794;9.722;2023-07-31T05:20:04;17.70;99.90
3996;DHT22;2012;49.794;9.722;2023-07-31T05:22:31;17.70;99.90
3996;DHT22;2012;49.794;9.722;2023-07-31T05:24:58;17.80;99.90
3996;DHT22;2012;49.794;9.722;2023-07-31T05:27:25;17.80;99.90
3996;DHT22;2012;49.794;9.722;2023-07-31T05:29:52;17.90;99.90
3996;DHT22;2012;49.794;9.722;2023-07-31T05:32:19;17.70;99.90
3996;DHT22;2012;49.794;9.722;2023-07-31T05:34:45;17.70;99.90
3996;DHT22;2012;49.794;9.722;2023-07-31T05:37:14;17.70;99.90
3996;DHT22;2012;49.794;9.722;2023-07-31T05:39:40;17.80;99.90
3996;DHT22;2012;49.794;9.722;2023-07-31T05:42:07;17.80;99.90
3996;DHT22;2012;49.794;9.722;2023-07-31T05:44:34;17.80;99.90
3996;DHT22;2012;49.794;9.722;2023-07-31T05:47:01;17.90;99.90
3996;DHT22;2012;49.794;9.722;2023-07-31T05:49:28;17.90;99.90
3996;DHT22;2012;49.794;9.722;2023-07-31T05:51:55;18.00;99.90
3996;DHT22;2012;49.794;9.722;2023-07-31T05:54:21;17.90;99.90
3996;DHT22;2012;49.794;9.722;2023-07-31T05:56:48;17.90;99.90
3996;DHT22;2012;49.794;9.722;2023-07-31T05:59:16;17.90;99.90
3996;DHT22;2012;49.794;9.722;2023-07-31T06:01:43;18.00;99.90
3996;DHT22;2012;49.794;9.722;2023-07-31T06:04:10;17.90;99.90
3996;DHT22;2012;49.794;9.722;2023-07-31T06:06:37;17.90;99.90
3996;DHT22;2012;49.794;9.722;2023-07-31T06:09:05;17.90;99.90
3996;DHT22;2012;49.794;9.722;2023-07-31T06:11:31;18.00;99.90
3996;DHT22;2012;49.794;9.722;2023-07-31T06:13:58;18.00;99.90
3996;DHT22;2012;49.794;9.722;2023-07-31T06:16:26;17.90;99.90
3996;DHT22;2012;49.794;9.722;2023-07-31T06:18:54;18.00;99.90
3996;DHT22;2012;49.794;9.722;2023-07-31T06:21:20;18.00;99.90
3996;DHT22;2012;49.794;9.722;2023-07-31T06:23:47;18.00;99.90
3996;DHT22;2012;49.794;9.722;2023-07-31T06:26:14;18.00;99.90
3996;DHT22;2012;49.794;9.722;2023-07-31T06:28:41;18.00;99.90
3996;DHT22;2012;49.794;9.722;2023-07-31T06:31:08;18.10;99.90
3996;DHT22;2012;49.794;9.722;2023-07-31T06:33:35;18.20;99.90
3996;DHT22;2012;49.794;9.722;2023-07-31T06:36:02;18.10;99.90
3996;DHT22;2012;49.794;9.722;2023-07-31T06:38:29;18.10;99.90
3996;DHT22;2012;49.794;9.722;2023-07-31T06:40:56;18.20;99.90
3996;DHT22;2012;49.794;9.722;2023-07-31T06:43:23;18.20;99.90
3996;DHT22;2012;49.794;9.722;2023-07-31T06:45:51;18.20;99.90
3996;DHT22;2012;49.794;9.722;2023-07-31T06:48:18;18.30;99.90
3996;DHT22;2012;49.794;9.722;2023-07-31T06:50:46;18.30;99.90
3996;DHT22;2012;49.794;9.722;2023-07-31T06:53:12;18.30;99.90
3996;DHT22;2012;49.794;9.722;2023-07-31T06:55:39;18.40;99.90
3996;DHT22;2012;49.794;9.722;2023-07-31T06:58:06;18.40;99.90
3996;DHT22;2012;49.794;9.722;2023-07-31T07:00:33;18.30;99.90
3996;DHT22;2012;49.794;9.722;2023-07-31T07:03:00;18.30;99.90
3996;DHT22;2012;49.794;9.722;2023-07-31T07:05:27;18.30;99.90
3996;DHT22;2012;49.794;9.722;2023-07-31T07:07:54;18.30;99.90
3996;DHT22;2012;49.794;9.722;2023-07-31T07:10:21;18.30;99.90
3996;DHT22;2012;49.794;9.722;2023-07-31T07:12:48;18.30;99.90
3996;DHT22;2012;49.794;9.722;2023-07-31T07:15:15;18.40;99.90
3996;DHT22;2012;49.794;9.722;2023-07-31T07:17:42;18.40;99.90
3996;DHT22;2012;49.794;9.722;2023-07-31T07:20:09;18.50;99.90
3996;DHT22;2012;49.794;9.722;2023-07-31T07:22:36;18.60;99.90
3996;DHT22;2012;49.794;9.722;2023-07-31T07:25:04;18.70;99.90
3996;DHT22;2012;49.794;9.722;2023-07-31T07:27:31;18.70;99.90
3996;DHT22;2012;49.794;9.722;2023-07-31T07:29:58;18.70;99.90
3996;DHT22;2012;49.794;9.722;2023-07-31T07:32:25;18.70;99.90
3996;DHT22;2012;49.794;9.722;2023-07-31T07:34:52;18.70;99.90
3996;DHT22;2012;49.794;9.722;2023-07-31T07:37:19;18.80;99.90
3996;DHT22;2012;49.794;9.722;2023-07-31T07:39:46;18.90;99.90
3996;DHT22;2012;49.794;9.722;2023-07-31T07:42:13;19.00;99.90
3996;DHT22;2012;49.794;9.722;2023-07-31T07:44:40;19.20;99.90
3996;DHT22;2012;49.794;9.722;2023-07-31T07:47:06;19.30;99.90
3996;DHT22;2012;49.794;9.722;2023-07-31T07:49:34;19.30;99.90
3996;DHT22;2012;49.794;9.722;2023-07-31T07:52:02;19.30;99.90
3996;DHT22;2012;49.794;9.722;2023-07-31T07:54:30;19.20;99.90
3996;DHT22;2012;49.794;9.722;2023-07-31T07:56:58;19.10;99.90
3996;DHT22;2012;49.794;9.722;2023-07-31T07:59:25;19.20;99.90
3996;DHT22;2012;49.794;9.722;2023-07-31T08:01:52;19.10;99.90
3996;DHT22;2012;49.794;9.722;2023-07-31T08:04:20;19.10;99.90
3996;DHT22;2012;49.794;9.722;2023-07-31T08:06:46;19.20;99.90
3996;DHT22;2012;49.794;9.722;2023-07-31T08:09:13;19.20;99.90
3996;DHT22;2012;49.794;9.722;2023-07-31T08:11:40;19.20;99.90
3996;DHT22;2012;49.794;9.722;2023-07-31T08:14:07;19.20;99.90
3996;DHT22;2012;49.794;9.722;2023-07-31T08:16:34;19.30;99.90
3996;DHT22;2012;49.794;9.722;2023-07-31T08:19:01;19.30;99.90
3996;DHT22;2012;49.794;9.722;2023-07-31T08:21:28;19.40;99.90
3996;DHT22;2012;49.794;9.722;2023-07-31T08:23:55;19.40;99.90
3996;DHT22;2012;49.794;9.722;2023-07-31T08:26:22;19.40;99.90
3996;DHT22;2012;49.794;9.722;2023-07-31T08:28:48;19.50;99.90
3996;DHT22;2012;49.794;9.722;2023-07-31T08:31:15;19.70;99.90
3996;DHT22;2012;49.794;9.722;2023-07-31T08:33:42;19.70;99.90
3996;DHT22;2012;49.794;9.722;2023-07-31T08:36:09;19.70;99.90
3996;DHT22;2012;49.794;9.722;2023-07-31T08:38:36;19.70;99.90
3996;DHT22;2012;49.794;9.722;2023-07-31T08:41:03;19.80;99.90
3996;DHT22;2012;49.794;9.722;2023-07-31T08:43:32;19.80;99.90
3996;DHT22;2012;49.794;9.722;2023-07-31T08:46:00;20.00;99.90
3996;DHT22;2012;49.794;9.722;2023-07-31T08:48:29;20.30;99.90
3996;DHT22;2012;49.794;9.722;2023-07-31T08:50:57;20.50;99.90
3996;DHT22;2012;49.794;9.722;2023-07-31T08:53:24;20.30;99.90
3996;DHT22;2012;49.794;9.722;2023-07-31T08:55:53;20.30;99.90
3996;DHT22;2012;49.794;9.722;2023-07-31T08:58:21;20.30;99.90
3996;DHT22;2012;49.794;9.722;2023-07-31T09:00:51;20.50;99.90
3996;DHT22;2012;49.794;9.722;2023-07-31T09:03:22;20.70;99.90
3996;DHT22;2012;49.794;9.722;2023-07-31T09:05:50;20.80;99.90
3996;DHT22;2012;49.794;9.722;2023-07-31T09:08:21;20.80;99.90
3996;DHT22;2012;49.794;9.722;2023-07-31T09:10:48;20.70;99.90
3996;DHT22;2012;49.794;9.722;2023-07-31T09:13:18;20.70;99.90
3996;DHT22;2012;49.794;9.722;2023-07-31T09:15:46;20.60;99.90
3996;DHT22;2012;49.794;9.722;2023-07-31T09:18:13;20.70;99.90
3996;DHT22;2012;49.794;9.722;2023-07-31T09:20:46;20.70;99.90
3996;DHT22;2012;49.794;9.722;2023-07-31T09:23:26;20.70;99.90
3996;DHT22;2012;49.794;9.722;2023-07-31T09:26:09;20.80;99.90
3996;DHT22;2012;49.794;9.722;2023-07-31T09:28:36;20.80;99.90
3996;DHT22;2012;49.794;9.722;2023-07-31T09:31:03;20.90;99.90
3996;DHT22;2012;49.794;9.722;2023-07-31T09:33:30;21.00;99.90
3996;DHT22;2012;49.794;9.722;2023-07-31T09:35:58;20.90;99.90
3996;DHT22;2012;49.794;9.722;2023-07-31T09:38:26;20.70;99.90
3996;DHT22;2012;49.794;9.722;2023-07-31T09:40:54;20.70;99.90
3996;DHT22;2012;49.794;9.722;2023-07-31T09:43:21;20.60;99.90
3996;DHT22;2012;49.794;9.722;2023-07-31T09:45:55;20.60;99.90
3996;DHT22;2012;49.794;9.722;2023-07-31T09:48:23;20.50;99.90
3996;DHT22;2012;49.794;9.722;2023-07-31T09:50:54;20.50;99.90
3996;DHT22;2012;49.794;9.722;2023-07-31T09:53:28;20.60;99.90
3996;DHT22;2012;49.794;9.722;2023-07-31T09:55:58;20.60;99.90
3996;DHT22;2012;49.794;9.722;2023-07-31T09:58:28;20.70;99.90
3996;DHT22;2012;49.794;9.722;2023-07-31T10:00:57;20.60;99.90
3996;DHT22;2012;49.794;9.722;2023-07-31T10:03:26;20.60;99.90
3996;DHT22;2012;49.794;9.722;2023-07-31T10:05:55;20.70;99.90
3996;DHT22;2012;49.794;9.722;2023-07-31T10:08:28;20.70;99.90
3996;DHT22;2012;49.794;9.722;2023-07-31T10:10:59;20.70;99.90
3996;DHT22;2012;49.794;9.722;2023-07-31T10:13:28;20.70;99.90
3996;DHT22;2012;49.794;9.722;2023-07-31T10:15:59;20.70;99.90
3996;DHT22;2012;49.794;9.722;2023-07-31T10:18:28;20.70;99.90
3996;DHT22;2012;49.794;9.722;2023-07-31T10:20:56;20.80;99.90
3996;DHT22;2012;49.794;9.722;2023-07-31T10:23:24;20.90;99.90
3996;DHT22;2012;49.794;9.722;2023-07-31T10:25:53;20.90;99.90
3996;DHT22;2012;49.794;9.722;2023-07-31T10:28:21;20.80;99.90
3996;DHT22;2012;49.794;9.722;2023-07-31T10:30:49;20.70;99.90
3996;DHT22;2012;49.794;9.722;2023-07-31T10:33:18;20.80;99.90
3996;DHT22;2012;49.794;9.722;2023-07-31T10:35:49;20.80;99.90
3996;DHT22;2012;49.794;9.722;2023-07-31T10:38:20;20.90;99.90
3996;DHT22;2012;49.794;9.722;2023-07-31T10:40:46;21.10;99.90
3996;DHT22;2012;49.794;9.722;2023-07-31T10:43:25;21.20;99.90
3996;DHT22;2012;49.794;9.722;2023-07-31T10:45:53;21.30;99.90
3996;DHT22;2012;49.794;9.722;2023-07-31T10:48:20;21.30;99.90
3996;DHT22;2012;49.794;9.722;2023-07-31T10:50:50;21.40;99.90
3996;DHT22;2012;49.794;9.722;2023-07-31T10:53:31;21.60;99.90
3996;DHT22;2012;49.794;9.722;2023-07-31T10:56:00;21.50;99.90
3996;DHT22;2012;49.794;9.722;2023-07-31T10:58:28;21.60;99.90
3996;DHT22;2012;49.794;9.722;2023-07-31T11:00:57;21.60;99.90
3996;DHT22;2012;49.794;9.722;2023-07-31T11:03:43;21.60;99.90
3996;DHT22;2012;49.794;9.722;2023-07-31T11:06:11;21.60;99.90
3996;DHT22;2012;49.794;9.722;2023-07-31T11:08:43;21.60;99.90
3996;DHT22;2012;49.794;9.722;2023-07-31T11:11:15;21.60;99.90
3996;DHT22;2012;49.794;9.722;2023-07-31T11:16:20;21.60;99.90
3996;DHT22;2012;49.794;9.722;2023-07-31T11:18:49;21.50;99.90
3996;DHT22;2012;49.794;9.722;2023-07-31T11:21:22;21.60;99.90
3996;DHT22;2012;49.794;9.722;2023-07-31T11:23:51;21.50;99.90
3996;DHT22;2012;49.794;9.722;2023-07-31T11:26:19;21.60;99.90
3996;DHT22;2012;49.794;9.722;2023-07-31T11:28:48;21.50;99.90
3996;DHT22;2012;49.794;9.722;2023-07-31T11:31:15;21.50;99.90
3996;DHT22;2012;49.794;9.722;2023-07-31T11:33:42;21.50;99.90
3996;DHT22;2012;49.794;9.722;2023-07-31T11:36:20;21.50;99.90
3996;DHT22;2012;49.794;9.722;2023-07-31T11:38:47;21.50;99.90
3996;DHT22;2012;49.794;9.722;2023-07-31T11:41:15;21.50;99.90
3996;DHT22;2012;49.794;9.722;2023-07-31T11:43:46;21.70;99.90
3996;DHT22;2012;49.794;9.722;2023-07-31T11:46:14;21.60;99.90
3996;DHT22;2012;49.794;9.722;2023-07-31T11:48:42;21.70;99.90
3996;DHT22;2012;49.794;9.722;2023-07-31T11:51:10;21.80;99.90
3996;DHT22;2012;49.794;9.722;2023-07-31T11:53:51;21.90;99.90
3996;DHT22;2012;49.794;9.722;2023-07-31T11:56:20;22.00;99.90
3996;DHT22;2012;49.794;9.722;2023-07-31T11:58:49;21.90;99.90
3996;DHT22;2012;49.794;9.722;2023-07-31T12:01:18;21.90;99.90
3996;DHT22;2012;49.794;9.722;2023-07-31T12:03:47;22.00;99.90
3996;DHT22;2012;49.794;9.722;2023-07-31T12:06:15;22.00;99.90
3996;DHT22;2012;49.794;9.722;2023-07-31T12:08:41;22.00;99.90
3996;DHT22;2012;49.794;9.722;2023-07-31T12:11:09;22.00;99.90
3996;DHT22;2012;49.794;9.722;2023-07-31T12:13:36;22.00;99.90
3996;DHT22;2012;49.794;9.722;2023-07-31T12:16:04;22.10;99.90
3996;DHT22;2012;49.794;9.722;2023-07-31T12:18:35;22.20;99.90
3996;DHT22;2012;49.794;9.722;2023-07-31T12:21:05;22.20;99.90
3996;DHT22;2012;49.794;9.722;2023-07-31T12:23:33;22.30;99.90
3996;DHT22;2012;49.794;9.722;2023-07-31T12:26:14;22.30;99.90
3996;DHT22;2012;49.794;9.722;2023-07-31T12:28:46;22.60;99.90
3996;DHT22;2012;49.794;9.722;2023-07-31T12:31:20;23.00;99.90
3996;DHT22;2012;49.794;9.722;2023-07-31T12:33:51;23.00;99.90
3996;DHT22;2012;49.794;9.722;2023-07-31T12:36:23;22.80;99.90
3996;DHT22;2012;49.794;9.722;2023-07-31T12:38:51;22.60;99.90
3996;DHT22;2012;49.794;9.722;2023-07-31T12:41:18;22.60;99.90
3996;DHT22;2012;49.794;9.722;2023-07-31T12:43:45;22.50;99.90
3996;DHT22;2012;49.794;9.722;2023-07-31T12:46:12;22.40;99.90
3996;DHT22;2012;49.794;9.722;2023-07-31T12:48:40;22.40;99.90
3996;DHT22;2012;49.794;9.722;2023-07-31T12:51:07;22.00;99.90
3996;DHT22;2012;49.794;9.722;2023-07-31T12:53:35;22.00;99.90
3996;DHT22;2012;49.794;9.722;2023-07-31T12:56:02;21.80;99.90
3996;DHT22;2012;49.794;9.722;2023-07-31T12:58:29;21.80;99.90
3996;DHT22;2012;49.794;9.722;2023-07-31T13:00:56;22.00;99.90
3996;DHT22;2012;49.794;9.722;2023-07-31T13:03:23;22.30;99.90
3996;DHT22;2012;49.794;9.722;2023-07-31T13:05:50;22.50;99.90
3996;DHT22;2012;49.794;9.722;2023-07-31T13:08:19;22.60;99.90
3996;DHT22;2012;49.794;9.722;2023-07-31T13:10:46;22.70;99.90
3996;DHT22;2012;49.794;9.722;2023-07-31T13:13:13;22.60;99.90
3996;DHT22;2012;49.794;9.722;2023-07-31T13:15:40;22.60;99.90
3996;DHT22;2012;49.794;9.722;2023-07-31T13:18:07;22.70;99.90
3996;DHT22;2012;49.794;9.722;2023-07-31T13:20:33;22.70;99.90
3996;DHT22;2012;49.794;9.722;2023-07-31T13:23:00;22.80;99.90
3996;DHT22;2012;49.794;9.722;2023-07-31T13:25:27;22.80;99.90
3996;DHT22;2012;49.794;9.722;2023-07-31T13:27:55;22.80;99.90
3996;DHT22;2012;49.794;9.722;2023-07-31T13:30:22;22.80;99.90
3996;DHT22;2012;49.794;9.722;2023-07-31T13:32:49;22.50;99.90
3996;DHT22;2012;49.794;9.722;2023-07-31T13:35:16;22.40;99.90
3996;DHT22;2012;49.794;9.722;2023-07-31T13:37:43;22.60;99.90
3996;DHT22;2012;49.794;9.722;2023-07-31T13:40:10;22.90;99.90
3996;DHT22;2012;49.794;9.722;2023-07-31T13:42:37;23.30;99.90
3996;DHT22;2012;49.794;9.722;2023-07-31T13:45:04;23.20;99.90
3996;DHT22;2012;49.794;9.722;2023-07-31T13:47:33;23.10;99.90
3996;DHT22;2012;49.794;9.722;2023-07-31T13:50:01;23.00;99.90
3996;DHT22;2012;49.794;9.722;2023-07-31T13:52:28;23.00;99.90
3996;DHT22;2012;49.794;9.722;2023-07-31T13:54:57;23.00;99.90
3996;DHT22;2012;49.794;9.722;2023-07-31T13:57:23;22.80;99.90
3996;DHT22;2012;49.794;9.722;2023-07-31T13:59:50;22.70;99.90
3996;DHT22;2012;49.794;9.722;2023-07-31T14:02:17;22.70;99.90
3996;DHT22;2012;49.794;9.722;2023-07-31T14:04:44;22.60;99.90
3996;DHT22;2012;49.794;9.722;2023-07-31T14:07:11;22.60;99.90
3996;DHT22;2012;49.794;9.722;2023-07-31T14:09:38;22.60;99.90
3996;DHT22;2012;49.794;9.722;2023-07-31T14:12:05;22.60;99.90
3996;DHT22;2012;49.794;9.722;2023-07-31T14:14:32;22.60;99.90
3996;DHT22;2012;49.794;9.722;2023-07-31T14:17:01;22.50;99.90
3996;DHT22;2012;49.794;9.722;2023-07-31T14:19:28;22.50;99.90
3996;DHT22;2012;49.794;9.722;2023-07-31T14:21:55;22.40;99.90
3996;DHT22;2012;49.794;9.722;2023-07-31T14:24:37;22.40;99.90
3996;DHT22;2012;49.794;9.722;2023-07-31T14:27:04;22.40;99.90
3996;DHT22;2012;49.794;9.722;2023-07-31T14:29:31;22.40;99.90
3996;DHT22;2012;49.794;9.722;2023-07-31T14:31:58;22.40;99.90
3996;DHT22;2012;49.794;9.722;2023-07-31T14:34:26;22.50;99.90
3996;DHT22;2012;49.794;9.722;2023-07-31T14:36:53;22.40;99.90
3996;DHT22;2012;49.794;9.722;2023-07-31T14:39:20;22.40;99.90
3996;DHT22;2012;49.794;9.722;2023-07-31T14:41:47;22.50;99.90
3996;DHT22;2012;49.794;9.722;2023-07-31T14:44:15;22.40;99.90
3996;DHT22;2012;49.794;9.722;2023-07-31T14:46:42;22.50;99.90
3996;DHT22;2012;49.794;9.722;2023-07-31T14:49:09;22.30;99.90
3996;DHT22;2012;49.794;9.722;2023-07-31T14:51:36;22.40;99.90
3996;DHT22;2012;49.794;9.722;2023-07-31T14:54:03;22.30;99.90
3996;DHT22;2012;49.794;9.722;2023-07-31T14:56:30;22.30;99.90
3996;DHT22;2012;49.794;9.722;2023-07-31T14:58:57;22.30;99.90
3996;DHT22;2012;49.794;9.722;2023-07-31T15:01:24;22.30;99.90
3996;DHT22;2012;49.794;9.722;2023-07-31T15:03:51;22.30;99.90
3996;DHT22;2012;49.794;9.722;2023-07-31T15:06:18;22.30;99.90
3996;DHT22;2012;49.794;9.722;2023-07-31T15:08:45;22.30;99.90
3996;DHT22;2012;49.794;9.722;2023-07-31T15:11:11;22.10;99.90
3996;DHT22;2012;49.794;9.722;2023-07-31T15:13:39;22.10;99.90
3996;DHT22;2012;49.794;9.722;2023-07-31T15:16:06;22.30;99.90
3996;DHT22;2012;49.794;9.722;2023-07-31T15:18:32;22.40;99.90
3996;DHT22;2012;49.794;9.722;2023-07-31T15:20:59;22.50;99.90
3996;DHT22;2012;49.794;9.722;2023-07-31T15:23:26;22.60;99.90
3996;DHT22;2012;49.794;9.722;2023-07-31T15:25:53;22.40;99.90
3996;DHT22;2012;49.794;9.722;2023-07-31T15:28:20;22.50;99.90
3996;DHT22;2012;49.794;9.722;2023-07-31T15:30:47;22.70;99.90
3996;DHT22;2012;49.794;9.722;2023-07-31T15:33:15;22.60;99.90
3996;DHT22;2012;49.794;9.722;2023-07-31T15:35:42;22.50;99.90
3996;DHT22;2012;49.794;9.722;2023-07-31T15:38:10;22.50;99.90
3996;DHT22;2012;49.794;9.722;2023-07-31T15:40:38;22.40;99.90
3996;DHT22;2012;49.794;9.722;2023-07-31T15:43:04;22.30;99.90
3996;DHT22;2012;49.794;9.722;2023-07-31T15:45:31;22.30;99.90
3996;DHT22;2012;49.794;9.722;2023-07-31T15:47:58;22.30;99.90
3996;DHT22;2012;49.794;9.722;2023-07-31T15:50:25;22.30;99.90
3996;DHT22;2012;49.794;9.722;2023-07-31T15:52:52;22.40;99.90
3996;DHT22;2012;49.794;9.722;2023-07-31T15:55:18;22.30;99.90
3996;DHT22;2012;49.794;9.722;2023-07-31T15:57:45;22.30;99.90
3996;DHT22;2012;49.794;9.722;2023-07-31T16:00:12;22.20;99.90
3996;DHT22;2012;49.794;9.722;2023-07-31T16:02:39;22.10;99.90
3996;DHT22;2012;49.794;9.722;2023-07-31T16:05:06;22.10;99.90
3996;DHT22;2012;49.794;9.722;2023-07-31T16:07:33;22.10;99.90
3996;DHT22;2012;49.794;9.722;2023-07-31T16:10:00;22.10;99.90
3996;DHT22;2012;49.794;9.722;2023-07-31T16:12:27;22.00;99.90
3996;DHT22;2012;49.794;9.722;2023-07-31T16:14:54;22.00;99.90